Time;durP1;ratioP1;P1;durP2;ratioP2;P2;SDS_P1;SDS_P2;PMS_P1;PMS_P2;Temp;Humidity;BMP_temperature;BMP_pressure;BME280_temperature;BME280_humidity;BME280_pressure;Samples;Min_cycle;Max_cycle;Signal;HPM_P1;HPM_P2
2021/01/31 00:01:06;;;;;;;64.90;35.10;;;;;;;1.58;81.46;98886.56;121692;1141;104380;-81
2021/01/31 00:03:34;;;;;;;66.07;37.00;;;;;;;1.47;81.45;98892.95;121722;1141;104479;-78
2021/01/31 00:06:05;;;;;;;62.00;35.53;;;;;;;1.36;81.88;98906.25;121650;1141;104368;-81
2021/01/31 00:08:34;;;;;;;56.77;30.47;;;;;;;1.27;81.23;98918.74;121767;1141;104339;-77
2021/01/31 00:11:04;;;;;;;56.63;32.20;;;;;;;1.22;81.58;98923.70;121735;1141;104860;-77
2021/01/31 00:13:33;;;;;;;52.35;28.35;;;;;;;1.17;81.68;98930.36;121722;1141;104397;-78
2021/01/31 00:16:01;;;;;;;54.83;29.50;;;;;;;1.12;82.01;98921.47;121729;1141;104444;-77
2021/01/31 00:18:31;;;;;;;52.23;27.43;;;;;;;1.06;82.06;98952.18;121685;1141;104372;-75
2021/01/31 00:21:01;;;;;;;48.43;26.13;;;;;;;1.00;81.55;98947.63;121694;1141;104456;-78
2021/01/31 00:23:30;;;;;;;55.70;29.10;;;;;;;0.96;81.68;98966.35;121668;1140;104333;-76
2021/01/31 00:25:59;;;;;;;50.77;28.93;;;;;;;0.93;81.78;98961.03;121675;1141;104348;-78
2021/01/31 00:28:28;;;;;;;52.17;25.97;;;;;;;0.92;82.03;98927.38;121664;1141;104358;-77
2021/01/31 00:30:58;;;;;;;49.17;27.33;;;;;;;0.92;81.85;98955.80;121708;1140;104845;-76
2021/01/31 00:33:29;;;;;;;43.93;24.63;;;;;;;0.94;81.88;98962.82;121715;1141;104343;-78
2021/01/31 00:35:59;;;;;;;45.63;23.73;;;;;;;0.96;81.99;98957.73;121667;1141;104346;-78
2021/01/31 00:38:28;;;;;;;46.60;24.33;;;;;;;0.97;82.04;98965.55;121637;1141;104502;-78
2021/01/31 00:40:58;;;;;;;45.27;24.07;;;;;;;0.98;81.81;98979.34;121683;1141;104347;-78
2021/01/31 00:43:27;;;;;;;50.35;27.35;;;;;;;0.93;81.74;98986.86;121744;1141;104349;-77
2021/01/31 00:45:56;;;;;;;50.10;26.00;;;;;;;0.91;81.68;98980.75;121625;1141;104408;-79
2021/01/31 00:48:26;;;;;;;49.23;26.43;;;;;;;0.89;81.59;98985.84;121603;1141;104502;-78
2021/01/31 00:50:55;;;;;;;38.40;20.97;;;;;;;0.92;81.98;99005.78;121727;1141;104442;-77
2021/01/31 00:53:26;;;;;;;40.37;20.53;;;;;;;0.99;81.87;99022.45;121645;1141;104452;-78
2021/01/31 00:56:02;;;;;;;38.17;19.70;;;;;;;1.01;82.03;99026.90;121600;1139;104599;-79
2021/01/31 00:58:37;;;;;;;40.37;18.73;;;;;;;1.02;82.19;99030.36;121614;1141;104517;-77
2021/01/31 01:01:06;;;;;;;39.77;20.47;;;;;;;1.01;81.83;99015.66;121736;1141;104335;-79
2021/01/31 01:03:35;;;;;;;37.10;18.80;;;;;;;1.00;81.88;99025.12;121755;1141;104455;-79
2021/01/31 01:06:04;;;;;;;39.20;20.70;;;;;;;1.00;81.54;99031.98;121702;1140;104435;-79
2021/01/31 01:08:33;;;;;;;38.33;19.83;;;;;;;1.00;81.90;99038.03;121748;1141;104518;-79
2021/01/31 01:11:03;;;;;;;35.93;19.07;;;;;;;1.00;81.86;99057.82;121613;1140;104380;-75
2021/01/31 01:13:32;;;;;;;39.30;19.60;;;;;;;0.98;81.72;99067.17;121687;1140;104447;-76
2021/01/31 01:16:01;;;;;;;37.13;20.07;;;;;;;0.97;82.02;99060.25;121730;1140;104375;-77
2021/01/31 01:18:31;;;;;;;42.63;21.37;;;;;;;0.92;81.82;99057.43;121612;1141;105036;-77
2021/01/31 01:21:00;;;;;;;38.40;19.30;;;;;;;0.87;81.62;99058.88;121633;1141;104381;-78
2021/01/31 01:23:29;;;;;;;37.07;19.20;;;;;;;0.85;81.77;99070.83;121799;1141;104583;-77
2021/01/31 01:25:57;;;;;;;40.17;19.57;;;;;;;0.84;81.85;99072.53;121693;1140;104345;-77
2021/01/31 01:28:26;;;;;;;41.63;20.27;;;;;;;0.83;81.97;99080.20;121722;1141;104445;-79
2021/01/31 01:30:55;;;;;;;37.33;18.33;;;;;;;0.82;81.76;99081.00;121732;1141;104342;-78
2021/01/31 01:33:24;;;;;;;37.30;18.43;;;;;;;0.82;81.90;99093.91;121717;1141;104409;-79
2021/01/31 01:35:53;;;;;;;36.77;17.77;;;;;;;0.84;81.68;99094.87;121739;1140;105663;-79
2021/01/31 01:38:22;;;;;;;36.73;19.00;;;;;;;0.87;81.97;99095.94;121664;1141;104474;-80
2021/01/31 01:40:56;;;;;;;37.23;17.57;;;;;;;0.91;82.01;99088.34;121760;1141;104333;-80
2021/01/31 01:43:25;;;;;;;32.70;16.37;;;;;;;0.96;82.11;99080.00;121736;1141;104365;-80
2021/01/31 01:46:26;;;;;;;37.33;17.57;;;;;;;0.96;81.87;99061.92;121789;1141;105375;-79
2021/01/31 01:49:01;;;;;;;35.63;17.97;;;;;;;0.96;81.52;99068.80;121739;1141;104965;-79
2021/01/31 01:51:37;;;;;;;34.13;16.00;;;;;;;0.94;81.78;99096.25;121709;1141;104409;-77
2021/01/31 01:54:10;;;;;;;37.17;18.30;;;;;;;0.93;81.87;99112.55;121566;1140;104512;-78
2021/01/31 01:56:44;;;;;;;36.85;18.45;;;;;;;0.94;81.92;99114.33;121643;1139;104344;-79
2021/01/31 01:59:13;;;;;;;;;;;;;;;0.96;81.86;99134.25;121686;1141;104338;-78
2021/01/31 02:01:48;;;;;;;40.00;17.47;;;;;;;0.96;81.92;99123.03;121673;1141;104497;-78
2021/01/31 02:04:17;;;;;;;36.63;16.77;;;;;;;0.95;81.83;99127.33;121588;1141;104338;-78
2021/01/31 02:06:46;;;;;;;38.10;20.27;;;;;;;0.97;81.71;99138.61;121630;1141;104451;-78
2021/01/31 02:09:14;;;;;;;35.70;18.50;;;;;;;0.97;81.52;99160.98;121631;1141;104327;-77
2021/01/31 02:11:43;;;;;;;42.30;20.47;;;;;;;0.97;81.65;99171.32;121634;1141;104342;-79
2021/01/31 02:14:13;;;;;;;36.00;17.37;;;;;;;0.96;81.83;99161.78;121565;1140;104464;-77
2021/01/31 02:16:53;;;;;;;35.63;17.27;;;;;;;0.94;81.58;99151.38;121473;1139;104396;-77
2021/01/31 02:19:54;;;;;;;37.17;18.97;;;;;;;0.90;81.32;99152.01;121719;1141;104348;-77
2021/01/31 02:22:45;;;;;;;39.53;19.37;;;;;;;0.84;81.31;99159.43;121681;1141;104348;-77
2021/01/31 02:25:41;;;;;;;36.13;17.43;;;;;;;0.81;81.60;99151.52;121706;1141;104786;-79
2021/01/31 02:28:41;;;;;;;40.00;20.30;;;;;;;0.80;81.79;99149.77;121726;1141;104342;-78
2021/01/31 02:31:36;;;;;;;39.07;18.90;;;;;;;0.81;81.83;99144.69;121723;1141;104375;-77
2021/01/31 02:34:10;;;;;;;40.40;18.83;;;;;;;0.79;81.54;99153.14;121715;1141;104863;-79
2021/01/31 02:36:47;;;;;;;36.47;18.57;;;;;;;0.76;81.38;99183.97;121740;1140;104389;-78
2021/01/31 02:39:31;;;;;;;32.10;14.90;;;;;;;0.73;81.42;99176.06;121697;1141;104487;-79
2021/01/31 02:42:20;;;;;;;36.57;16.63;;;;;;;0.70;81.40;99184.52;121747;1141;104949;-78
2021/01/31 02:44:59;;;;;;;33.93;16.57;;;;;;;0.66;81.63;99193.80;121629;1141;104213;-79
2021/01/31 02:47:31;;;;;;;34.90;15.77;;;;;;;0.63;81.41;99196.22;121802;1141;104528;-78
2021/01/31 02:50:06;;;;;;;35.27;16.83;;;;;;;0.61;81.50;99215.91;121714;1140;104906;-76
2021/01/31 02:52:42;;;;;;;33.30;15.60;;;;;;;0.59;81.42;99224.37;121725;1141;104835;-78
2021/01/31 02:55:18;;;;;;;37.47;17.03;;;;;;;0.56;81.07;99222.49;121735;1140;104342;-77
2021/01/31 02:57:55;;;;;;;34.73;15.93;;;;;;;0.55;81.48;99231.06;121724;1141;104448;-76
2021/01/31 03:00:31;;;;;;;34.83;16.97;;;;;;;0.53;81.61;99225.81;121711;1141;104217;-77
2021/01/31 03:03:06;;;;;;;37.13;17.07;;;;;;;0.52;81.23;99246.38;121707;1141;102455;-78
2021/01/31 03:05:39;;;;;;;35.83;16.67;;;;;;;0.50;81.64;99259.20;121748;1141;104451;-76
2021/01/31 03:08:15;;;;;;;33.03;16.20;;;;;;;0.47;81.10;99276.22;121704;1140;104455;-76
2021/01/31 03:10:50;;;;;;;33.97;16.27;;;;;;;0.43;81.69;99251.03;121666;1141;104838;-76
2021/01/31 03:13:24;;;;;;;32.73;16.47;;;;;;;0.43;81.16;99263.94;121736;1141;104483;-75
2021/01/31 03:15:59;;;;;;;34.10;16.37;;;;;;;0.42;81.34;99260.48;121737;1140;104761;-77
2021/01/31 03:18:38;;;;;;;33.83;15.33;;;;;;;0.42;80.69;99268.22;121726;1141;104334;-78
2021/01/31 03:21:12;;;;;;;31.73;14.53;;;;;;;0.42;81.64;99280.21;121698;1141;104338;-76
2021/01/31 03:23:46;;;;;;;34.75;17.05;;;;;;;0.42;81.33;99286.29;121686;1140;104357;-77
2021/01/31 03:26:23;;;;;;;31.80;13.10;;;;;;;0.41;81.26;99297.41;121708;1141;104352;-76
2021/01/31 03:28:52;;;;;;;30.60;14.77;;;;;;;0.41;80.93;99299.98;121577;1141;104461;-76
2021/01/31 03:31:24;;;;;;;33.60;16.20;;;;;;;0.42;81.14;99296.61;121733;1141;104370;-76
2021/01/31 03:34:01;;;;;;;31.53;15.03;;;;;;;0.41;80.99;99296.52;121697;1141;104453;-78
2021/01/31 03:36:32;;;;;;;33.33;15.93;;;;;;;0.43;81.07;99300.06;121709;1141;104342;-77
2021/01/31 03:39:03;;;;;;;34.33;17.37;;;;;;;0.45;80.80;99303.61;121711;1140;104403;-77
2021/01/31 03:41:33;;;;;;;32.67;15.50;;;;;;;0.46;81.35;99310.56;121691;1140;104436;-77
2021/01/31 03:44:02;;;;;;;32.37;15.20;;;;;;;0.46;80.84;99305.41;121676;1141;103041;-76
2021/01/31 03:46:35;;;;;;;31.03;13.67;;;;;;;0.46;80.78;99302.83;121721;1141;104352;-76
2021/01/31 03:49:12;;;;;;;29.85;14.85;;;;;;;0.44;80.89;99302.73;121646;1141;104336;-76
2021/01/31 03:51:41;;;;;;;27.83;12.87;;;;;;;0.42;81.02;99318.92;121711;1141;104362;-76
2021/01/31 03:54:11;;;;;;;30.53;14.30;;;;;;;0.39;80.48;99327.41;121687;1140;104460;-77
2021/01/31 03:56:47;;;;;;;34.77;16.03;;;;;;;0.35;81.31;99331.48;121722;1141;104340;-77
2021/01/31 03:59:20;;;;;;;28.80;13.07;;;;;;;0.31;80.67;99345.03;121511;1141;103099;-77
2021/01/31 04:01:52;;;;;;;32.73;15.27;;;;;;;0.29;81.01;99354.34;121708;1140;104335;-77
2021/01/31 04:04:26;;;;;;;33.00;14.90;;;;;;;0.29;80.46;99367.25;121721;1140;104436;-76
2021/01/31 04:06:59;;;;;;;30.73;13.67;;;;;;;0.28;80.31;99373.23;121691;1140;104907;-76
2021/01/31 04:09:32;;;;;;;29.33;12.73;;;;;;;0.25;81.06;99367.89;121675;1140;104557;-78
2021/01/31 04:12:06;;;;;;;31.37;12.60;;;;;;;0.23;80.28;99381.49;121717;1141;104526;-76
2021/01/31 04:14:41;;;;;;;28.93;13.13;;;;;;;0.19;80.95;99380.44;121640;1141;104808;-77
2021/01/31 04:17:10;;;;;;;28.87;11.90;;;;;;;0.17;80.76;99387.17;121725;1141;104300;-77
2021/01/31 04:19:39;;;;;;;26.77;12.60;;;;;;;0.15;80.91;99375.88;121723;1140;104446;-76
2021/01/31 04:22:08;;;;;;;27.23;12.37;;;;;;;0.14;80.93;99393.06;121731;1141;104476;-79
2021/01/31 04:24:37;;;;;;;24.57;11.23;;;;;;;0.12;80.30;99397.22;121738;1141;104343;-79
2021/01/31 04:27:06;;;;;;;26.93;11.57;;;;;;;0.10;80.52;99393.67;121666;1141;104416;-77
2021/01/31 04:29:36;;;;;;;23.97;11.33;;;;;;;0.08;80.52;99404.69;121672;1141;104348;-77
2021/01/31 04:32:05;;;;;;;22.73;9.33;;;;;;;0.04;80.54;99410.48;121744;1141;104340;-80
2021/01/31 04:34:34;;;;;;;26.10;10.67;;;;;;;0.04;80.59;99410.48;121790;1141;104345;-76
2021/01/31 04:37:03;;;;;;;23.27;9.77;;;;;;;0.02;80.72;99412.05;121789;1140;104493;-78
2021/01/31 04:39:32;;;;;;;21.53;9.33;;;;;;;-0.04;79.78;99405.73;121746;1141;105362;-76
2021/01/31 04:42:03;;;;;;;21.87;9.10;;;;;;;-0.07;80.13;99422.73;121754;1141;104380;-79
2021/01/31 04:44:32;;;;;;;21.13;8.40;;;;;;;-0.12;79.54;99411.25;121700;1141;104461;-79
2021/01/31 04:47:07;;;;;;;17.87;7.83;;;;;;;-0.16;80.05;99428.20;121704;1141;104336;-77
2021/01/31 04:49:52;;;;;;;17.60;7.80;;;;;;;-0.22;79.32;99427.83;121641;1141;104340;-77
2021/01/31 04:52:39;;;;;;;17.17;7.53;;;;;;;-0.28;79.82;99436.10;121691;1141;104340;-77
2021/01/31 04:55:24;;;;;;;17.13;7.03;;;;;;;-0.31;79.12;99453.05;121743;1141;104347;-77
2021/01/31 04:58:04;;;;;;;14.87;7.37;;;;;;;-0.34;79.53;99452.85;121724;1141;104493;-77
2021/01/31 05:00:41;;;;;;;15.27;6.20;;;;;;;-0.38;79.68;99467.25;121730;1141;104382;-78
2021/01/31 05:03:11;;;;;;;17.50;6.70;;;;;;;-0.39;79.63;99479.25;121684;1141;104368;-77
2021/01/31 05:05:51;;;;;;;17.87;6.67;;;;;;;-0.40;78.81;99494.62;121649;1141;104999;-77
2021/01/31 05:08:24;;;;;;;12.27;5.93;;;;;;;-0.41;78.44;99498.87;121638;1141;104463;-78
2021/01/31 05:10:59;;;;;;;16.90;6.67;;;;;;;-0.41;78.97;99501.45;121575;1140;104336;-78
2021/01/31 05:13:39;;;;;;;15.27;6.63;;;;;;;-0.40;79.81;99499.78;121721;1140;104346;-77
2021/01/31 05:16:10;;;;;;;14.83;6.17;;;;;;;-0.38;79.67;99503.34;121746;1141;104509;-77
2021/01/31 05:18:49;;;;;;;15.73;6.73;;;;;;;-0.37;78.93;99503.44;121652;1140;104466;-78
2021/01/31 05:21:22;;;;;;;12.57;5.37;;;;;;;-0.32;79.12;99518.31;121682;1141;104335;-79
2021/01/31 05:23:56;;;;;;;17.37;7.57;;;;;;;-0.31;79.28;99517.48;121631;1140;104463;-79
2021/01/31 05:26:28;;;;;;;18.73;7.30;;;;;;;-0.34;78.39;99517.30;121696;1140;104461;-77
2021/01/31 05:29:02;;;;;;;14.27;6.90;;;;;;;-0.33;78.61;99529.41;121750;1140;104567;-77
2021/01/31 05:31:35;;;;;;;15.40;6.87;;;;;;;-0.35;78.81;99537.04;121659;1141;104805;-77
2021/01/31 05:34:04;;;;;;;15.10;6.17;;;;;;;-0.36;78.48;99542.98;121716;1141;104345;-77
2021/01/31 05:36:37;;;;;;;15.87;7.00;;;;;;;-0.39;78.23;99547.94;121709;1140;104348;-78
2021/01/31 05:39:09;;;;;;;16.12;6.70;;;;;;;-0.41;78.59;99553.00;121767;1141;104478;-79
2021/01/31 05:41:49;;;;;;;16.63;7.10;;;;;;;-0.41;78.49;99550.42;121702;1141;104824;-78
2021/01/31 05:44:30;;;;;;;16.63;6.90;;;;;;;-0.41;79.00;99562.42;121638;1141;104436;-79
2021/01/31 05:47:02;;;;;;;17.90;7.20;;;;;;;-0.40;78.53;99551.33;121741;1141;104435;-80
2021/01/31 05:49:35;;;;;;;17.73;6.93;;;;;;;-0.39;78.96;99558.25;121754;1141;104353;-78
2021/01/31 05:52:11;;;;;;;16.57;7.03;;;;;;;-0.38;78.29;99555.77;121794;1140;104465;-80
2021/01/31 05:54:40;;;;;;;16.20;7.30;;;;;;;-0.35;78.44;99560.24;121722;1140;104471;-79
2021/01/31 05:57:25;;;;;;;13.97;6.60;;;;;;;-0.34;78.28;99567.19;121681;1141;104353;-77
2021/01/31 05:59:54;;;;;;;15.43;6.73;;;;;;;-0.36;78.20;99563.60;121735;1140;104374;-77
2021/01/31 06:02:26;;;;;;;17.70;6.80;;;;;;;-0.38;77.73;99570.36;121673;1141;104447;-76
2021/01/31 06:05:12;;;;;;;15.90;6.60;;;;;;;-0.42;78.20;99571.86;121624;1140;104334;-77
2021/01/31 06:07:42;;;;;;;16.03;7.33;;;;;;;-0.42;78.05;99579.59;121647;1141;104455;-78
2021/01/31 06:10:15;;;;;;;16.57;7.37;;;;;;;-0.39;78.11;99582.36;121701;1141;104348;-78
2021/01/31 06:12:45;;;;;;;17.43;7.63;;;;;;;-0.35;78.11;99592.88;121705;1140;104331;-79
2021/01/31 06:15:22;;;;;;;15.83;7.10;;;;;;;-0.31;78.32;99593.17;121709;1141;104426;-78
2021/01/31 06:17:58;;;;;;;17.07;7.30;;;;;;;-0.26;78.38;99599.50;121681;1139;104338;-79
2021/01/31 06:20:30;;;;;;;18.20;8.03;;;;;;;-0.19;78.24;99604.27;121714;1141;104486;-79
2021/01/31 06:23:00;;;;;;;17.17;7.60;;;;;;;-0.08;78.08;99599.80;121720;1140;104339;-78
2021/01/31 06:25:40;;;;;;;16.27;7.53;;;;;;;-0.02;78.45;99613.08;121691;1141;104388;-79
2021/01/31 06:28:27;;;;;;;18.17;7.77;;;;;;;0.03;78.41;99620.20;121747;1141;104461;-80
2021/01/31 06:31:05;;;;;;;16.13;7.30;;;;;;;0.10;78.32;99628.42;121744;1141;104361;-78
2021/01/31 06:33:43;;;;;;;17.00;7.47;;;;;;;0.16;78.21;99628.81;121726;1141;104403;-78
2021/01/31 06:36:22;;;;;;;21.20;7.70;;;;;;;0.25;78.17;99630.17;121663;1141;104380;-78
2021/01/31 06:39:13;;;;;;;20.00;7.20;;;;;;;0.32;77.79;99625.48;121697;1140;104463;-78
2021/01/31 06:41:54;;;;;;;17.67;7.20;;;;;;;0.42;77.81;99631.22;121695;1140;104811;-79
2021/01/31 06:44:35;;;;;;;19.83;8.40;;;;;;;0.44;77.97;99639.98;122409;1140;101994;-78
2021/01/31 06:47:16;;;;;;;19.03;8.10;;;;;;;0.48;77.70;99626.44;121643;1141;104452;-77
2021/01/31 06:49:57;;;;;;;18.20;7.77;;;;;;;0.56;77.13;99621.75;121685;1141;104460;-79
2021/01/31 06:52:43;;;;;;;17.70;7.37;;;;;;;0.73;77.21;99621.08;121722;1141;104362;-79
2021/01/31 06:55:27;;;;;;;17.67;7.80;;;;;;;0.88;77.75;99628.88;121614;1141;104345;-78
2021/01/31 06:58:17;;;;;;;18.70;7.45;;;;;;;0.89;77.56;99635.84;121616;1141;104342;-79
2021/01/31 07:01:09;;;;;;;17.93;7.17;;;;;;;0.82;77.40;99623.34;121653;1141;104439;-77
2021/01/31 07:04:11;;;;;;;16.77;7.17;;;;;;;0.70;77.55;99629.55;121531;1140;104421;-77
2021/01/31 07:07:07;;;;;;;15.60;6.87;;;;;;;0.61;77.07;99639.32;121725;1140;104465;-77
2021/01/31 07:09:54;;;;;;;16.47;6.57;;;;;;;0.54;77.00;99648.36;121708;1141;104364;-77
2021/01/31 07:12:33;;;;;;;18.03;7.87;;;;;;;0.54;76.92;99652.64;121732;1140;104338;-77
2021/01/31 07:15:09;;;;;;;17.77;7.03;;;;;;;0.57;77.05;99663.16;121735;1141;104342;-77
2021/01/31 07:17:42;;;;;;;17.03;6.90;;;;;;;0.58;76.56;99644.30;121705;1141;104792;-78
2021/01/31 07:20:19;;;;;;;18.50;7.60;;;;;;;0.65;76.67;99630.94;121744;1141;104341;-79
2021/01/31 07:22:53;;;;;;;17.77;7.53;;;;;;;0.75;76.67;99626.34;121720;1141;104335;-78
2021/01/31 07:25:31;;;;;;;18.80;7.58;;;;;;;0.83;76.62;99631.18;121728;1141;106032;-78
2021/01/31 07:28:06;;;;;;;17.33;6.67;;;;;;;0.94;76.09;99633.53;121658;1141;104624;-80
2021/01/31 07:30:41;;;;;;;15.97;6.67;;;;;;;1.07;76.51;99641.19;121649;1140;104345;-79
2021/01/31 07:33:15;;;;;;;17.87;7.57;;;;;;;1.24;76.36;99649.95;121726;1141;104331;-80
2021/01/31 07:35:58;;;;;;;14.63;6.53;;;;;;;1.34;76.17;99641.95;121806;1140;104412;-78
2021/01/31 07:38:34;;;;;;;17.47;7.17;;;;;;;1.35;75.16;99628.20;121677;1140;104435;-80
2021/01/31 07:41:05;;;;;;;16.07;6.93;;;;;;;1.36;75.57;99629.11;121492;1141;104943;-79
2021/01/31 07:43:37;;;;;;;17.77;7.77;;;;;;;1.34;75.65;99641.03;121744;1141;104675;-80
2021/01/31 07:46:11;;;;;;;18.10;7.90;;;;;;;1.34;76.08;99633.28;121815;1140;104464;-80
2021/01/31 07:48:59;;;;;;;17.40;7.17;;;;;;;1.27;75.72;99634.63;121628;1141;104713;-80
2021/01/31 07:51:52;;;;;;;18.27;7.20;;;;;;;1.20;75.16;99640.22;121705;1141;104338;-77
2021/01/31 07:54:24;;;;;;;17.27;6.93;;;;;;;1.17;75.23;99642.63;121637;1141;104373;-78
2021/01/31 07:57:17;;;;;;;17.97;7.60;;;;;;;1.20;75.46;99660.89;121676;1140;104874;-80
2021/01/31 07:59:55;;;;;;;17.93;7.47;;;;;;;1.30;75.88;99665.82;121544;1141;104738;-78
2021/01/31 08:02:40;;;;;;;18.03;7.80;;;;;;;1.40;75.73;99668.16;121547;1141;104861;-79
2021/01/31 08:05:15;;;;;;;17.30;7.57;;;;;;;1.55;74.85;99682.78;121649;1141;102532;-80
2021/01/31 08:08:03;;;;;;;18.63;8.30;;;;;;;1.56;74.50;99669.94;121632;1140;104473;-79
2021/01/31 08:10:49;;;;;;;19.60;7.80;;;;;;;1.60;74.75;99669.29;121619;1141;104389;-78
2021/01/31 08:13:42;;;;;;;17.97;7.70;;;;;;;1.56;75.22;99669.05;121728;1141;104342;-82
2021/01/31 08:16:37;;;;;;;17.83;7.97;;;;;;;1.64;75.20;99683.31;121642;1141;104402;-81
2021/01/31 08:19:12;;;;;;;17.42;7.08;;;;;;;1.64;74.34;99685.89;121767;1141;104353;-82
2021/01/31 08:21:55;;;;;;;17.97;7.00;;;;;;;1.58;74.00;99708.81;121728;1141;104464;-78
2021/01/31 08:24:52;;;;;;;18.97;7.77;;;;;;;1.51;73.56;99702.40;121698;1140;104515;-80
2021/01/31 08:27:46;;;;;;;16.63;7.53;;;;;;;1.49;73.73;99706.56;121663;1140;104337;-79
2021/01/31 08:30:22;;;;;;;17.00;7.50;;;;;;;1.54;73.96;99725.85;121434;1141;104967;-83
2021/01/31 08:33:17;;;;;;;20.67;8.50;;;;;;;1.66;74.27;99722.20;121627;1141;104572;-80
2021/01/31 08:35:57;;;;;;;;;;;;;;;1.69;73.93;99728.43;121811;1141;104472;-80
2021/01/31 08:38:37;;;;;;;16.80;7.80;;;;;;;1.75;73.94;99733.08;121762;1141;104336;-80
2021/01/31 08:41:32;;;;;;;21.37;9.00;;;;;;;1.77;73.73;99734.94;121677;1141;104377;-80
2021/01/31 08:44:35;;;;;;;20.10;8.73;;;;;;;1.78;73.59;99728.97;121736;1141;104329;-79
2021/01/31 08:47:06;;;;;;;21.63;8.07;;;;;;;1.84;73.38;99724.94;121719;1140;103190;-79
2021/01/31 08:49:36;;;;;;;21.20;8.97;;;;;;;1.77;73.55;99734.05;121627;1141;104655;-80
2021/01/31 08:52:10;;;;;;;17.97;8.03;;;;;;;1.73;73.83;99740.75;121684;1140;104380;-80
2021/01/31 08:54:38;;;;;;;;;;;;;;;1.61;73.56;99746.08;121819;1140;104362;-81
2021/01/31 08:57:12;;;;;;;20.50;8.60;;;;;;;1.52;72.89;99747.23;121656;1141;104330;-78
2021/01/31 08:59:45;;;;;;;19.40;8.55;;;;;;;1.43;73.27;99752.73;121569;1141;104372;-82
2021/01/31 09:02:25;;;;;;;19.00;7.95;;;;;;;1.35;73.22;99761.73;121730;1139;104436;-79
2021/01/31 09:04:58;;;;;;;18.63;7.43;;;;;;;1.23;73.39;99772.20;121718;1141;104344;-80
2021/01/31 09:07:32;;;;;;;17.80;7.77;;;;;;;1.21;73.76;99776.41;121674;1141;104380;-81
2021/01/31 09:10:07;;;;;;;20.47;8.50;;;;;;;1.24;73.20;99774.89;121657;1141;104450;-79
2021/01/31 09:12:41;;;;;;;19.17;7.80;;;;;;;1.27;73.26;99783.65;121724;1141;104415;-81
2021/01/31 09:15:17;;;;;;;18.60;7.73;;;;;;;1.24;73.15;99781.76;121634;1141;104484;-80
2021/01/31 09:17:46;;;;;;;16.20;7.67;;;;;;;1.30;73.37;99774.38;121715;1140;104426;-78
2021/01/31 09:20:21;;;;;;;19.53;8.17;;;;;;;1.34;72.99;99778.03;121684;1141;104323;-79
2021/01/31 09:22:55;;;;;;;20.97;8.27;;;;;;;1.40;72.93;99793.92;121727;1141;104335;-80
2021/01/31 09:25:27;;;;;;;20.33;8.00;;;;;;;1.44;72.92;99786.44;121728;1141;104349;-79
2021/01/31 09:28:02;;;;;;;20.70;8.43;;;;;;;1.48;73.09;99784.04;121700;1140;105332;-79
2021/01/31 09:30:34;;;;;;;21.65;9.00;;;;;;;1.51;72.93;99776.47;121632;1141;104640;-80
2021/01/31 09:33:11;;;;;;;21.90;9.43;;;;;;;1.56;73.07;99775.95;121723;1140;104339;-79
2021/01/31 09:35:40;;;;;;;18.67;8.40;;;;;;;1.61;73.51;99776.23;121713;1141;104407;-81
2021/01/31 09:38:16;;;;;;;18.90;8.10;;;;;;;1.66;73.05;99792.02;121628;1141;104537;-79
2021/01/31 09:40:47;;;;;;;19.37;8.53;;;;;;;1.73;72.88;99802.83;121755;1141;104331;-80
2021/01/31 09:43:21;;;;;;;19.40;8.80;;;;;;;1.79;73.00;99813.55;121651;1141;104566;-78
2021/01/31 09:45:54;;;;;;;21.23;9.40;;;;;;;1.90;72.95;99810.67;121734;1140;104438;-80
2021/01/31 09:48:26;;;;;;;18.85;8.30;;;;;;;1.98;72.73;99804.28;121720;1140;104435;-78
2021/01/31 09:50:58;;;;;;;20.40;8.97;;;;;;;1.94;72.72;99792.84;121664;1141;104348;-80
2021/01/31 09:53:35;;;;;;;21.07;9.03;;;;;;;1.95;73.00;99797.22;121738;1141;104491;-80
2021/01/31 09:56:09;;;;;;;23.37;9.40;;;;;;;2.01;72.71;99791.52;121707;1141;104447;-79
2021/01/31 09:59:00;;;;;;;22.50;9.18;;;;;;;2.02;72.53;99805.34;121738;1140;104452;-79
2021/01/31 10:01:31;;;;;;;22.33;9.20;;;;;;;2.00;72.88;99810.43;121771;1141;104464;-80
2021/01/31 10:04:06;;;;;;;20.43;9.20;;;;;;;2.01;72.66;99814.81;121800;1141;104345;-80
2021/01/31 10:06:43;;;;;;;28.27;9.83;;;;;;;2.12;72.63;99813.73;121606;1141;104531;-79
2021/01/31 10:09:13;;;;;;;23.03;10.70;;;;;;;2.22;72.67;99814.27;121678;1141;104357;-78
2021/01/31 10:11:47;;;;;;;21.73;9.63;;;;;;;2.24;73.10;99817.83;121574;1141;104798;-79
2021/01/31 10:14:35;;;;;;;;;;;;;;;2.19;72.25;99829.62;121760;1141;104333;-78
2021/01/31 10:17:15;;;;;;;21.47;9.70;;;;;;;2.07;72.46;99837.55;121503;1141;104357;-78
2021/01/31 10:19:45;;;;;;;21.03;9.00;;;;;;;2.03;73.01;99820.96;121701;1141;104499;-79
2021/01/31 10:22:23;;;;;;;21.37;8.87;;;;;;;1.98;72.25;99818.10;121542;1141;104467;-79
2021/01/31 10:24:52;;;;;;;22.63;10.07;;;;;;;1.93;71.94;99823.80;121660;1141;104331;-79
2021/01/31 10:27:25;;;;;;;22.27;8.77;;;;;;;1.93;72.08;99834.14;121693;1141;104439;-79
2021/01/31 10:30:17;;;;;;;20.53;9.70;;;;;;;1.95;72.17;99833.45;121764;1140;104368;-79
2021/01/31 10:32:46;;;;;;;21.40;9.87;;;;;;;1.95;71.91;99841.20;121741;1141;104499;-81
2021/01/31 10:35:28;;;;;;;20.80;8.90;;;;;;;1.98;72.24;99856.03;121524;1141;104400;-80
2021/01/31 10:38:00;;;;;;;21.27;9.67;;;;;;;1.92;71.98;99861.73;121689;1141;104916;-80
2021/01/31 10:40:29;;;;;;;20.57;9.47;;;;;;;1.83;71.87;99868.05;121722;1140;104383;-79
2021/01/31 10:43:08;;;;;;;21.33;9.77;;;;;;;1.75;72.28;99859.83;121607;1141;104463;-80
2021/01/31 10:45:37;;;;;;;20.40;9.25;;;;;;;1.78;72.25;99863.48;121647;1141;104389;-79
2021/01/31 10:48:10;;;;;;;19.60;9.27;;;;;;;1.85;71.65;99871.61;121383;1141;104383;-80
2021/01/31 10:50:41;;;;;;;20.67;9.40;;;;;;;1.85;71.93;99882.84;121658;1140;104341;-79
2021/01/31 10:53:11;;;;;;;21.90;10.03;;;;;;;1.96;72.34;99892.17;121705;1140;104461;-80
2021/01/31 10:55:43;;;;;;;24.00;10.07;;;;;;;2.01;72.05;99913.16;121724;1141;104336;-79
2021/01/31 10:58:13;;;;;;;21.37;9.20;;;;;;;1.98;71.56;99907.79;121710;1140;104332;-78
2021/01/31 11:00:42;;;;;;;22.87;10.20;;;;;;;1.99;71.83;99906.97;121693;1141;104380;-79
2021/01/31 11:03:11;;;;;;;19.80;9.20;;;;;;;2.04;71.78;99915.92;121686;1140;104453;-80
2021/01/31 11:05:41;;;;;;;21.93;9.60;;;;;;;1.94;70.87;99906.69;121744;1141;104498;-80
2021/01/31 11:08:10;;;;;;;21.53;9.47;;;;;;;1.91;70.98;99906.50;121654;1140;104347;-79
2021/01/31 11:10:40;;;;;;;20.37;9.10;;;;;;;1.96;71.12;99901.61;121734;1141;104345;-78
2021/01/31 11:13:10;;;;;;;24.03;10.27;;;;;;;1.98;71.78;99898.33;121660;1141;105151;-81
2021/01/31 11:15:39;;;;;;;21.90;9.37;;;;;;;1.93;71.12;99902.34;121635;1140;104340;-78
2021/01/31 11:18:13;;;;;;;21.87;10.40;;;;;;;1.92;71.09;99889.31;121714;1141;104839;-80
2021/01/31 11:20:42;;;;;;;;;;;;;;;1.96;70.98;99888.67;121755;1141;104463;-78
2021/01/31 11:23:12;;;;;;;24.80;10.40;;;;;;;2.03;71.26;99901.19;121727;1141;104573;-79
2021/01/31 11:25:45;;;;;;;22.03;9.43;;;;;;;1.95;70.34;99898.14;121608;1140;104444;-80
2021/01/31 11:28:17;;;;;;;24.57;9.37;;;;;;;1.98;71.08;99910.37;121726;1141;104428;-79
2021/01/31 11:30:48;;;;;;;22.67;9.90;;;;;;;2.02;70.31;99907.16;121697;1140;104336;-78
2021/01/31 11:33:17;;;;;;;20.50;8.77;;;;;;;2.04;70.87;99905.57;121748;1140;104460;-78
2021/01/31 11:35:48;;;;;;;22.27;10.40;;;;;;;2.08;70.88;99904.05;121688;1141;104670;-79
2021/01/31 11:38:17;;;;;;;25.00;10.70;;;;;;;2.10;70.67;99892.09;121498;1141;104432;-79
2021/01/31 11:40:47;;;;;;;21.17;10.13;;;;;;;2.03;70.09;99898.59;121704;1141;104344;-78
2021/01/31 11:43:18;;;;;;;23.93;10.50;;;;;;;2.01;70.32;99887.27;121658;1141;104342;-80
2021/01/31 11:45:47;;;;;;;26.30;10.90;;;;;;;2.06;70.72;99882.38;121516;1140;104391;-81
2021/01/31 11:48:16;;;;;;;20.90;9.83;;;;;;;2.18;70.77;99880.48;121562;1141;104594;-80
2021/01/31 11:50:45;;;;;;;23.57;10.27;;;;;;;2.20;70.67;99875.39;121648;1141;104460;-79